Terminal Aerodrome Forecast
Issued by NWS Duluth, MN

Home | Current Version | Previous Version | Text Only | Print | Product List | Glossary On
Versions: 1 2 3 4 5 6 7 8 9 10 11 12 13 14 15 16 17 18 19 20 21 22 23 24
000
FTUS43 KDLH 192334
TAFDLH
TAF
KDLH 192334Z 2000/2024 17005KT P6SM SKC
     FM200300 19007KT 2SM BR OVC004
     FM200500 19005KT 1/4SM FG VV002
     FM201100 13004KT 1/4SM -FZDZ FG VV002
     FM202100 12008KT 1 1/2SM -RA BR OVC003=

USA.gov is the U.S. government's official web portal to all federal, state and local government web resources and services.